Aeroporto :
LOGIN :

Iscrizione | Disclaimer

   EN    FR    IT 

 










Sommario :    VFR   VFR Marginale   IFR   IFR Intensivo   IFR Molto Intensivo
Visibilità : 
Base nubi : 
>= 8 km
>= 3000ft
5 / 8 km
1000 / 3000 ft
1500m / 5 km
500 / 1000 ft
800 / 1500m
200 / 500 ft
< 800m
< 200 ft
Simboli :   Temporali  Nebbia  Neve Forte  Precipitazioni Forti  Vento > 20 kt
SIGMETs :   Varie  Temporali  Ghiacco  Turbolenza  Onda orograficha  Ceneri Vulcaniche






- Altitudine del aeroporto : 12 ft
- Codice IATA : NCE


LFMN - Nice

ULTIMO METAR :
  • 011200Z 09013KT 9999 FEW020 SCT050 BKN060 12/M01 Q1019 NOSIG

METARs OBSOLETI :
  • 011130Z 09015KT 9999 FEW020 SCT050 BKN060 11/M00 Q1020 NOSIG
  • 011100Z 09014KT 9999 FEW020 SCT050 BKN060 11/M01 Q1020 NOSIG
  • 011030Z 08016KT 9999 FEW020 SCT050 BKN060 11/00 Q1020 NOSIG
  • 011000Z 08015KT 9999 FEW020 SCT050 BKN060 11/M01 Q1020 NOSIG
  • 010930Z 09017KT 9999 FEW020 SCT050 BKN060 11/00 Q1020 NOSIG

TAF TAF LFMN
Valido dal 01 a 09 ore il 02 a 15 ore UTC


010800Z 0109/0215 08020KT 9999 BKN060
BECMG 0110/0112 SCT060
BECMG 0117/0120 34010KT
TEMPO 0121/0215 BKN070
BECMG 0211/0213 14010KT
ATIS : +33 4 93 17 21 16



MetMap, La meteo Aeronautica in un colpo d'occhio ! - Copyright ORBIFLY Dicembre 2007 - Disclaimer

ORBIFLY MET'MAP TEAM :

Programmazione e sviluppo : Alexandra Zaïnal
Concezione : Baudouin d'Aumeries
Aiuto per la programmazione : Marc-Olivier Méhu
Supporto tecnico e logistico : Manuel Goepfert
Aiuto per la traduzione : Arnaldo La Scala

Contatto : metmap@orbifly.com




FONTI E CREDITI :

   NOAA